This is the latest recevied weather packets stored in our database for station/object HS9UAC-10. If no packets are shown the sender has not sent any weather packets the latest 1 day(s).
| Time | Temp. | Humidity | Pressure | Rain* | Wind** | Luminosity | Snow |
|---|---|---|---|---|---|---|---|
| 1778040253 | 37.78° C | 65% | 1008 hPa | - | 0 m/s | 0 W/m² | - |
| 1778039329 | 37.22° C | 68% | 1008 hPa | - | 0 m/s | 0 W/m² | - |
| 1778038404 | 37.22° C | 69% | 1008 hPa | - | 0 m/s | 0 W/m² | - |
| 1778037479 | 36.11° C | 73% | 1008 hPa | - | 0 m/s | 0 W/m² | - |
| 1778036555 | 36.11° C | 72% | 1008 hPa | - | 0 m/s | 0 W/m² | - |
| 1778035630 | 36.11° C | 72% | 1008 hPa | - | 0 m/s | 0 W/m² | - |
| 1778034705 | 35° C | 77% | 1008 hPa | - | 0 m/s | 0 W/m² | - |
| 1778033781 | 35° C | 77% | 1008 hPa | - | 0 m/s | 0 W/m² | - |
| 1778032856 | 36.67° C | 70% | 1008 hPa | - | 0 m/s | 0 W/m² | - |
| 1778031932 | 37.22° C | 70% | 1008 hPa | - | 0 m/s | 0 W/m² | - |
| 1778031007 | 36.67° C | 73% | 1008 hPa | - | 0 m/s | 0 W/m² | - |
| 1778030083 | 36.67° C | 75% | 1008 hPa | - | 0 m/s | 0 W/m² | - |
| 1778029158 | 36.11° C | 79% | 1007 hPa | - | 0 m/s | 0 W/m² | - |
| 1778028234 | 35° C | 84% | 1007 hPa | - | 0 m/s | 0 W/m² | - |
| 1778027309 | 34.44° C | 88% | 1007 hPa | - | 0 m/s | 0 W/m² | - |
| 1778026385 | 33.89° C | 91% | 1007 hPa | - | 0 m/s | 0 W/m² | - |
| 1778025460 | 33.33° C | 92% | 1007 hPa | - | 0 m/s | 0 W/m² | - |
| 1778024535 | 32.78° C | 93% | 1007 hPa | - | 0 m/s | 0 W/m² | - |
| 1778023610 | 32.78° C | 93% | 1007 hPa | - | 0 m/s | 0 W/m² | - |
| 1778023227 | 33.33° C | 92% | 1007 hPa | - | 0 m/s | 0 W/m² | - |
| 1778022303 | 32.78° C | 91% | 1006 hPa | - | 0 m/s | 0 W/m² | - |
| 1778021377 | 33.33° C | 89% | 1006 hPa | - | 0 m/s | 0 W/m² | - |
| 1778020453 | 33.89° C | 86% | 1006 hPa | - | 0 m/s | 0 W/m² | - |
| 1778019528 | 33.33° C | 83% | 1006 hPa | - | 0 m/s | 0 W/m² | - |
| 1778018604 | 33.89° C | 79% | 1006 hPa | - | 0 m/s | 0 W/m² | - |
* Rain since midnight (hover to see other rain measurements)
** Current wind speed in m/s (hover to see current wind gust speed)